createdAt,value
2022-12-13T00:02:01.920Z,100876.28
2022-12-13T00:04:30.780Z,100876.53
2022-12-13T00:06:59.549Z,100875.59
2022-12-13T00:09:28.373Z,100870.91
2022-12-13T00:11:57.058Z,100868.97
2022-12-13T00:14:27.123Z,100865.34
2022-12-13T00:16:55.775Z,100859.22
2022-12-13T00:19:24.986Z,100852.81
2022-12-13T00:21:53.850Z,100854.59
2022-12-13T00:24:22.511Z,100853.59
2022-12-13T00:26:51.407Z,100853.16
2022-12-13T00:29:20.669Z,100864.22
2022-12-13T00:31:59.393Z,100857.72
2022-12-13T00:34:29.595Z,100866.91
2022-12-13T00:36:59.776Z,100861.75
2022-12-13T00:39:29.287Z,100861.63
2022-12-13T00:41:58.893Z,100862.63
2022-12-13T00:44:28.155Z,100870.38
2022-12-13T00:46:58.401Z,100857.31
2022-12-13T00:49:27.105Z,100856.56
2022-12-13T00:51:55.776Z,100857.59
2022-12-13T00:54:24.574Z,100860.16
2022-12-13T00:56:53.267Z,100864.81
2022-12-13T00:59:21.857Z,100863.34
2022-12-13T01:01:50.715Z,100862.34
2022-12-13T01:04:20.702Z,100868.75
2022-12-13T01:06:51.625Z,100861.03
2022-12-13T01:09:23.441Z,100867.97
2022-12-13T01:11:52.374Z,100866.47
2022-12-13T01:14:21.269Z,100872.72
2022-12-13T01:16:50.002Z,100869.22
2022-12-13T01:19:20.127Z,100872.97
2022-12-13T01:21:48.862Z,100874.88
2022-12-13T01:24:20.873Z,100868.78
2022-12-13T01:26:49.598Z,100869.75
2022-12-13T01:29:18.851Z,100873.28
2022-12-13T01:31:47.855Z,100878.41
2022-12-13T01:34:21.200Z,100873.38
2022-12-13T01:36:58.387Z,100876.28
2022-12-13T01:39:28.975Z,100871.97
2022-12-13T01:42:00.181Z,100866.13
2022-12-13T01:45:06.277Z,100881.31
2022-12-13T01:47:44.113Z,100878.94
2022-12-13T01:50:23.290Z,100877.94
2022-12-13T01:52:53.155Z,100871.94
2022-12-13T01:55:26.189Z,100879.69
2022-12-13T01:58:03.029Z,100880.09
2022-12-13T02:00:33.560Z,100876.97
2022-12-13T02:03:04.238Z,100884.72
2022-12-13T02:05:40.663Z,100876.59
2022-12-13T02:08:13.151Z,100879.75
2022-12-13T02:10:43.822Z,100884.31
2022-12-13T02:13:12.982Z,100881.06
2022-12-13T02:15:52.472Z,100884.69
2022-12-13T02:18:41.368Z,100883.75
2022-12-13T02:21:34.266Z,100888.09
2022-12-13T02:24:59.452Z,100886.34
2022-12-13T02:27:52.269Z,100893.06
2022-12-13T02:30:40.520Z,100889.72
2022-12-13T02:33:27.599Z,100883.69
2022-12-13T02:36:11.456Z,100882.78
2022-12-13T02:38:54.336Z,100884.47
2022-12-13T02:41:34.500Z,100887.81
2022-12-13T02:44:12.835Z,100891.16
2022-12-13T02:47:00.544Z,100887.53
2022-12-13T02:49:35.754Z,100889.16
2022-12-13T02:52:08.288Z,100888.25
2022-12-13T02:54:38.244Z,100878.47
2022-12-13T02:57:34.027Z,100881.00
2022-12-13T03:00:09.258Z,100880.84
2022-12-13T03:02:57.231Z,100878.88
2022-12-13T03:05:59.722Z,100880.53
2022-12-13T03:08:46.487Z,100882.16
2022-12-13T03:11:19.534Z,100880.31
2022-12-13T03:13:54.983Z,100887.88
2022-12-13T03:16:33.948Z,100880.91
2022-12-13T03:19:10.638Z,100880.91
2022-12-13T03:21:47.615Z,100873.91
2022-12-13T03:24:19.668Z,100882.69
2022-12-13T03:26:51.432Z,100870.25
2022-12-13T03:29:23.586Z,100871.16
2022-12-13T03:31:54.126Z,100875.63
2022-12-13T03:34:24.153Z,100867.81
2022-12-13T03:36:53.755Z,100872.84
2022-12-13T03:39:23.925Z,100877.13
2022-12-13T03:41:53.020Z,100872.72
2022-12-13T03:44:21.660Z,100871.72
2022-12-13T03:46:50.211Z,100863.09
2022-12-13T03:49:18.902Z,100868.25
2022-12-13T03:51:48.915Z,100868.09
2022-12-13T03:54:17.643Z,100865.53
2022-12-13T03:56:46.302Z,100871.72
2022-12-13T03:59:15.038Z,100864.88
2022-12-13T04:01:43.660Z,100865.78
2022-12-13T04:04:12.266Z,100868.41
2022-12-13T04:06:41.241Z,100861.34
2022-12-13T04:09:11.493Z,100856.03
2022-12-13T04:11:58.036Z,100867.41
2022-12-13T04:14:27.068Z,100858.75
2022-12-13T04:16:55.939Z,100863.16
2022-12-13T04:19:24.976Z,100857.09
2022-12-13T04:21:54.958Z,100858.75
2022-12-13T04:24:31.610Z,100860.47
2022-12-13T04:27:01.510Z,100863.94
2022-12-13T04:29:34.669Z,100849.03
2022-12-13T04:32:05.347Z,100852.59
2022-12-13T04:35:00.682Z,100856.22
2022-12-13T04:37:30.276Z,100854.63
2022-12-13T04:40:01.173Z,100852.00
2022-12-13T04:42:30.275Z,100849.25
2022-12-13T04:44:59.278Z,100851.72
2022-12-13T04:47:28.812Z,100849.19
2022-12-13T04:50:00.407Z,100845.69
2022-12-13T04:52:29.201Z,100850.00
2022-12-13T04:54:59.955Z,100840.41
2022-12-13T04:57:28.699Z,100854.19
2022-12-13T04:59:58.300Z,100848.03
2022-12-13T05:02:30.587Z,100844.72
2022-12-13T05:04:59.751Z,100843.09
2022-12-13T05:07:29.700Z,100846.63
2022-12-13T05:10:03.701Z,100837.78
2022-12-13T05:12:32.486Z,100848.34
2022-12-13T05:15:01.384Z,100848.31
2022-12-13T05:17:30.771Z,100841.25
2022-12-13T05:20:07.463Z,100845.59
2022-12-13T05:22:37.836Z,100844.81
2022-12-13T05:25:09.580Z,100836.78
2022-12-13T05:27:38.380Z,100838.50
2022-12-13T05:30:09.067Z,100841.16
2022-12-13T05:32:42.797Z,100834.91
2022-12-13T05:35:14.576Z,100847.06
2022-12-13T05:37:55.992Z,100840.00
2022-12-13T05:40:28.169Z,100837.41
2022-12-13T05:43:00.919Z,100837.41
2022-12-13T05:45:30.345Z,100840.00
2022-12-13T05:47:58.980Z,100844.41
2022-12-13T05:50:28.020Z,100839.13
2022-12-13T05:52:56.739Z,100841.63
2022-12-13T05:55:27.237Z,100847.75
2022-12-13T05:57:55.777Z,100846.88
2022-12-13T06:00:31.380Z,100846.06
2022-12-13T06:03:01.886Z,100850.38
2022-12-13T06:05:31.622Z,100847.81
2022-12-13T06:08:00.555Z,100849.50
2022-12-13T06:10:34.865Z,100852.25
2022-12-13T06:13:21.634Z,100844.34
2022-12-13T06:16:01.606Z,100839.00
2022-12-13T06:18:34.722Z,100844.25
2022-12-13T06:21:05.888Z,100836.16
2022-12-13T06:23:36.479Z,100843.34
2022-12-13T06:26:12.066Z,100844.19
2022-12-13T06:28:40.752Z,100848.63
2022-12-13T06:31:11.947Z,100839.59
2022-12-13T06:33:40.747Z,100841.09
2022-12-13T06:36:13.996Z,100836.78
2022-12-13T06:38:46.076Z,100835.09
2022-12-13T06:41:18.800Z,100842.28
2022-12-13T06:43:53.134Z,100840.66
2022-12-13T06:46:22.353Z,100852.78
2022-12-13T06:48:53.875Z,100848.94
2022-12-13T06:51:32.372Z,100854.91
2022-12-13T06:54:02.884Z,100861.38
2022-12-13T06:56:33.997Z,100853.81
2022-12-13T06:59:02.934Z,100853.81
2022-12-13T07:01:37.118Z,100860.16
2022-12-13T07:04:30.201Z,100851.44
2022-12-13T07:07:01.275Z,100853.88
2022-12-13T07:09:30.873Z,100851.34
2022-12-13T07:12:02.206Z,100861.84
2022-12-13T07:14:40.640Z,100856.63
2022-12-13T07:17:10.991Z,100858.19
2022-12-13T07:19:40.679Z,100861.59
2022-12-13T07:22:09.320Z,100860.06
2022-12-13T07:24:38.334Z,100864.97
2022-12-13T07:27:08.332Z,100867.34
2022-12-13T07:29:37.032Z,100865.53
2022-12-13T07:32:06.461Z,100870.72
2022-12-13T07:34:35.166Z,100867.34
2022-12-13T07:37:04.769Z,100863.69
2022-12-13T07:39:33.466Z,100854.88
2022-12-13T07:42:02.317Z,100861.63
2022-12-13T07:44:32.830Z,100866.06
2022-12-13T07:47:01.679Z,100854.91
2022-12-13T07:49:33.444Z,100854.06
2022-12-13T07:52:02.982Z,100854.84
2022-12-13T07:54:31.835Z,100860.94
2022-12-13T07:57:04.409Z,100856.53
2022-12-13T07:59:34.677Z,100849.56
2022-12-13T08:02:03.384Z,100855.59
2022-12-13T08:04:37.852Z,100855.31
2022-12-13T08:07:15.587Z,100848.09
2022-12-13T08:09:49.608Z,100848.19
2022-12-13T08:12:22.758Z,100858.53
2022-12-13T08:14:53.630Z,100854.81
2022-12-13T08:17:23.334Z,100866.97
2022-12-13T08:19:52.776Z,100864.78
2022-12-13T08:22:24.236Z,100862.91
2022-12-13T08:24:53.291Z,100860.06
2022-12-13T08:27:22.802Z,100866.97
2022-12-13T08:29:53.048Z,100862.47
2022-12-13T08:32:21.953Z,100861.69
2022-12-13T08:34:50.954Z,100857.88
2022-12-13T08:37:20.450Z,100865.25
2022-12-13T08:39:49.086Z,100858.69
2022-12-13T08:42:20.531Z,100856.22
2022-12-13T08:44:51.564Z,100857.41
2022-12-13T08:47:25.882Z,100854.78
2022-12-13T08:50:02.611Z,100857.41
2022-12-13T08:52:40.457Z,100855.63
2022-12-13T08:55:17.423Z,100858.94
2022-12-13T08:57:48.004Z,100855.38
2022-12-13T09:00:23.131Z,100857.31
2022-12-13T09:02:57.712Z,100855.38
2022-12-13T09:05:33.920Z,100854.38
2022-12-13T09:08:22.811Z,100856.09
2022-12-13T09:10:59.328Z,100854.78
2022-12-13T09:13:31.803Z,100868.69
2022-12-13T09:16:14.044Z,100846.25
2022-12-13T09:18:54.710Z,100843.88
2022-12-13T09:21:30.994Z,100843.22
2022-12-13T09:24:05.157Z,100850.03
2022-12-13T09:26:57.305Z,100849.09
2022-12-13T09:29:26.788Z,100850.78
2022-12-13T09:31:55.703Z,100845.41
2022-12-13T09:34:26.323Z,100852.28
2022-12-13T09:36:55.101Z,100847.75
2022-12-13T09:39:31.067Z,100832.84
2022-12-13T09:42:01.838Z,100844.97
2022-12-13T09:45:01.153Z,100838.06
2022-12-13T09:47:38.642Z,100837.75
2022-12-13T09:50:27.428Z,100845.06
2022-12-13T09:53:00.126Z,100847.19
2022-12-13T09:55:38.118Z,100840.66
2022-12-13T09:58:15.500Z,100846.09
2022-12-13T10:00:47.422Z,100844.25
2022-12-13T10:03:20.580Z,100836.69
2022-12-13T10:06:00.566Z,100835.19
2022-12-13T10:08:37.196Z,100841.19
2022-12-13T10:11:06.491Z,100846.97
2022-12-13T10:13:43.004Z,100840.88
2022-12-13T10:16:23.729Z,100839.91
2022-12-13T10:18:53.444Z,100847.84
2022-12-13T10:21:30.304Z,100846.03
2022-12-13T10:24:26.293Z,100841.47
2022-12-13T10:26:58.379Z,100837.50
2022-12-13T10:29:27.709Z,100844.13
2022-12-13T10:31:56.679Z,100835.56
2022-12-13T10:34:29.641Z,100833.78
2022-12-13T10:37:00.107Z,100837.19
2022-12-13T10:39:44.281Z,100827.63
2022-12-13T10:42:22.805Z,100830.06
2022-12-13T10:45:23.001Z,100833.13
2022-12-13T10:47:56.999Z,100826.16
2022-12-13T10:50:31.272Z,100829.28
2022-12-13T10:53:02.455Z,100821.44
2022-12-13T10:55:35.069Z,100822.72
2022-12-13T10:58:09.653Z,100815.75
2022-12-13T11:00:43.159Z,100820.91
2022-12-13T11:03:31.194Z,100808.69
2022-12-13T11:06:07.891Z,100812.06
2022-12-13T11:08:39.030Z,100817.94
2022-12-13T11:11:11.271Z,100810.72
2022-12-13T11:13:46.622Z,100806.31
2022-12-13T11:16:27.403Z,100808.13
2022-12-13T11:18:59.521Z,100806.25
2022-12-13T11:21:33.977Z,100801.56
2022-12-13T11:24:08.967Z,100811.50
2022-12-13T11:26:43.038Z,100798.53
2022-12-13T11:29:46.380Z,100803.22
2022-12-13T11:32:32.197Z,100798.31
2022-12-13T11:35:17.515Z,100784.38
2022-12-13T11:37:58.981Z,100778.34
2022-12-13T11:40:33.599Z,100770.03
2022-12-13T11:43:13.095Z,100785.25
2022-12-13T11:45:48.664Z,100784.44
2022-12-13T11:48:28.235Z,100791.69
2022-12-13T11:50:58.836Z,100778.28
2022-12-13T11:53:35.632Z,100772.13
2022-12-13T11:56:21.470Z,100774.50
2022-12-13T11:59:03.677Z,100767.03
2022-12-13T12:01:43.165Z,100773.50
2022-12-13T12:04:28.140Z,100766.22
2022-12-13T12:07:30.728Z,100763.78
2022-12-13T12:10:05.322Z,100750.09
2022-12-13T12:12:39.112Z,100752.06
2022-12-13T12:15:16.962Z,100747.59
2022-12-13T12:50:42.869Z,100779.81
2022-12-13T12:54:16.991Z,100781.22
2022-12-13T12:56:56.847Z,100779.06
2022-12-13T12:59:42.128Z,100783.94
2022-12-13T13:02:25.596Z,100780.69
2022-12-13T13:05:01.029Z,100775.81
2022-12-13T13:07:43.151Z,100778.72
2022-12-13T13:10:26.777Z,100779.72
2022-12-13T13:13:12.123Z,100784.31
2022-12-13T13:15:59.455Z,100775.81
2022-12-13T13:18:49.237Z,100780.25
2022-12-13T13:22:01.294Z,100787.53
2022-12-13T13:24:36.897Z,100784.69
2022-12-13T13:27:34.575Z,100780.63
2022-12-13T13:30:17.964Z,100779.03
2022-12-13T13:32:47.532Z,100783.53
2022-12-13T13:35:56.798Z,100791.50
2022-12-13T13:38:49.917Z,100778.28
2022-12-13T13:41:56.809Z,100784.56
2022-12-13T13:45:11.626Z,100785.44
2022-12-13T13:47:45.655Z,100778.41
2022-12-13T13:51:11.349Z,100775.97
2022-12-13T13:54:43.635Z,100778.94
2022-12-13T13:58:10.646Z,100780.84
2022-12-13T14:01:32.062Z,100776.19
2022-12-13T14:04:47.724Z,100790.53
2022-12-13T14:07:54.547Z,100776.66
2022-12-13T14:10:52.071Z,100784.38
2022-12-13T14:14:24.571Z,100785.50
2022-12-13T14:18:05.584Z,100786.88
2022-12-13T14:21:10.548Z,100787.47
2022-12-13T14:24:11.342Z,100784.34
2022-12-13T14:26:59.557Z,100789.66
2022-12-13T14:29:48.498Z,100778.44
2022-12-13T14:32:30.690Z,100786.47
2022-12-13T14:35:25.414Z,100783.09
2022-12-13T14:37:57.988Z,100786.75
2022-12-13T14:40:34.362Z,100784.06
2022-12-13T14:43:04.451Z,100785.00
2022-12-13T14:45:38.890Z,100784.13
2022-12-13T14:48:28.532Z,100775.22
2022-12-13T14:50:59.938Z,100762.66
2022-12-13T14:53:31.982Z,100764.25
2022-12-13T14:56:11.447Z,100753.81
2022-12-13T14:59:00.295Z,100762.59
2022-12-13T15:01:34.687Z,100760.13
2022-12-13T15:04:25.885Z,100763.78
2022-12-13T15:07:07.792Z,100768.44
2022-12-13T15:09:43.723Z,100776.56
2022-12-13T15:12:24.595Z,100772.44
2022-12-13T15:15:00.773Z,100777.09
2022-12-13T15:17:36.132Z,100774.06
2022-12-13T15:20:26.336Z,100771.72
2022-12-13T15:23:02.303Z,100765.81
2022-12-13T15:25:34.439Z,100765.00
2022-12-13T15:28:03.811Z,100761.56
2022-12-13T15:30:36.647Z,100761.56
2022-12-13T15:33:09.567Z,100760.78
2022-12-13T15:35:38.624Z,100762.19
2022-12-13T15:38:14.584Z,100753.56
2022-12-13T15:41:02.865Z,100763.00
2022-12-13T15:43:39.449Z,100746.41
2022-12-13T15:46:08.365Z,100751.63
2022-12-13T15:48:48.622Z,100747.06
2022-12-13T15:51:29.322Z,100745.22
2022-12-13T15:54:07.836Z,100745.47
2022-12-13T15:56:39.496Z,100740.38
2022-12-13T15:59:29.994Z,100749.22
2022-12-13T16:02:00.053Z,100738.50
2022-12-13T16:04:33.979Z,100740.44
2022-12-13T16:07:03.599Z,100735.41
2022-12-13T16:09:38.290Z,100729.44
2022-12-13T16:12:22.607Z,100722.81
2022-12-13T16:14:52.351Z,100720.31
2022-12-13T16:17:30.897Z,100716.72
2022-12-13T16:20:07.810Z,100719.53
2022-12-13T16:22:39.058Z,100712.72
2022-12-13T16:25:09.171Z,100715.38
2022-12-13T16:27:37.970Z,100713.75
2022-12-13T16:30:25.234Z,100715.34
2022-12-13T16:33:18.277Z,100714.50
2022-12-13T16:35:44.426Z,100717.13
2022-12-13T16:38:25.877Z,100710.94
2022-12-13T16:41:08.704Z,100717.00
2022-12-13T16:43:49.052Z,100713.59
2022-12-13T16:47:11.591Z,100710.09
2022-12-13T16:49:21.416Z,100707.22
2022-12-13T16:51:52.309Z,100711.56
2022-12-13T16:54:26.015Z,100713.91
2022-12-13T16:56:55.634Z,100713.72
2022-12-13T16:59:27.130Z,100716.16
2022-12-13T17:01:56.935Z,100715.78
2022-12-13T17:04:28.410Z,100707.09
2022-12-13T17:06:58.644Z,100704.41
2022-12-13T17:09:27.861Z,100702.47
2022-12-13T17:11:56.786Z,100693.63
2022-12-13T17:14:25.744Z,100699.47
2022-12-13T17:16:56.891Z,100692.28
2022-12-13T17:19:25.919Z,100691.09
2022-12-13T17:21:54.639Z,100699.66
2022-12-13T17:24:25.216Z,100717.75
2022-12-13T17:26:57.622Z,100734.56
2022-12-13T17:29:26.951Z,100735.59
2022-12-13T17:31:55.703Z,100730.59
2022-12-13T17:34:27.401Z,100720.75
2022-12-13T17:36:56.361Z,100713.97
2022-12-13T17:39:29.680Z,100715.72
2022-12-13T17:41:58.400Z,100713.09
2022-12-13T17:44:28.371Z,100705.06
2022-12-13T17:46:57.516Z,100699.72
2022-12-13T17:49:27.196Z,100708.50
2022-12-13T17:51:57.163Z,100698.81
2022-12-13T17:54:29.713Z,100697.16
2022-12-13T17:56:58.700Z,100698.81
2022-12-13T17:59:35.967Z,100690.28
2022-12-13T18:02:11.277Z,100697.50
2022-12-13T18:04:40.020Z,100683.53
2022-12-13T18:07:09.747Z,100687.16
2022-12-13T18:09:40.322Z,100691.47
2022-12-13T18:12:09.670Z,100688.78
2022-12-13T18:14:39.167Z,100686.25
2022-12-13T18:17:08.313Z,100678.44
2022-12-13T18:19:36.979Z,100678.72
2022-12-13T18:22:05.778Z,100681.47
2022-12-13T18:24:34.653Z,100681.66
2022-12-13T18:27:08.069Z,100672.06
2022-12-13T18:29:36.761Z,100680.84
2022-12-13T18:32:05.620Z,100689.66
2022-12-13T18:34:34.918Z,100673.06
2022-12-13T18:37:03.657Z,100662.75
2022-12-13T18:39:32.786Z,100662.75
2022-12-13T18:42:01.593Z,100675.03
2022-12-13T18:44:33.708Z,100680.25
2022-12-13T18:47:02.448Z,100673.16
2022-12-13T18:49:31.984Z,100673.16
2022-12-13T18:52:01.184Z,100675.91
2022-12-13T18:54:33.105Z,100662.78
2022-12-13T18:57:01.817Z,100672.25
2022-12-13T18:59:33.661Z,100673.13
2022-12-13T19:02:03.143Z,100665.41
2022-12-13T19:04:32.188Z,100662.75
2022-12-13T19:07:01.177Z,100663.75
2022-12-13T19:09:29.873Z,100667.38
2022-12-13T19:11:58.962Z,100674.44
2022-12-13T19:14:29.204Z,100673.47
2022-12-13T19:16:59.894Z,100670.81
2022-12-13T19:19:34.054Z,100670.91
2022-12-13T19:22:03.040Z,100661.25
2022-12-13T19:24:31.896Z,100652.47
2022-12-13T19:27:00.610Z,100648.00
2022-12-13T19:29:29.493Z,100647.03
2022-12-13T19:32:02.204Z,100640.88
2022-12-13T19:34:30.868Z,100637.16
2022-12-13T19:37:05.935Z,100631.75
2022-12-13T19:39:35.238Z,100630.59
2022-12-13T19:42:04.109Z,100631.41
2022-12-13T19:44:33.031Z,100623.38
2022-12-13T19:47:03.180Z,100629.63
2022-12-13T19:49:32.128Z,100628.63
2022-12-13T19:52:01.511Z,100637.50
2022-12-13T19:54:33.717Z,100636.75
2022-12-13T19:57:07.460Z,100637.69
2022-12-13T19:59:36.553Z,100645.56
2022-12-13T20:02:06.969Z,100645.56
2022-12-13T20:04:36.133Z,100641.19
2022-12-13T20:07:04.949Z,100650.81
2022-12-13T20:09:36.138Z,100648.13
2022-12-13T20:12:05.343Z,100655.94
2022-12-13T20:14:34.374Z,100660.28
2022-12-13T20:17:03.080Z,100660.97
2022-12-13T20:19:33.482Z,100657.34
2022-12-13T20:22:02.177Z,100654.69
2022-12-13T20:24:31.220Z,100657.94
2022-12-13T20:27:00.134Z,100649.25
2022-12-13T20:29:28.783Z,100651.84
2022-12-13T20:31:58.180Z,100650.03
2022-12-13T20:34:29.254Z,100653.28
2022-12-13T20:36:59.531Z,100648.97
2022-12-13T20:39:28.358Z,100648.06
2022-12-13T20:41:57.213Z,100646.25
2022-12-13T20:44:25.909Z,100645.47
2022-12-13T20:46:56.987Z,100640.34
2022-12-13T20:49:25.834Z,100643.03
2022-12-13T20:51:55.062Z,100636.09
2022-12-13T20:54:25.358Z,100631.09
2022-12-13T20:56:54.023Z,100641.91
2022-12-13T20:59:23.063Z,100628.06
2022-12-13T21:01:51.789Z,100623.06
2022-12-13T21:04:20.841Z,100625.88
2022-12-13T21:06:52.609Z,100623.50
2022-12-13T21:09:21.748Z,100618.47
2022-12-13T21:11:51.814Z,100618.72
2022-12-13T21:14:23.584Z,100624.19
2022-12-13T21:16:57.046Z,100631.16
2022-12-13T21:19:33.050Z,100628.03
2022-12-13T21:22:04.636Z,100626.50
2022-12-13T21:24:36.726Z,100630.19
2022-12-13T21:27:07.450Z,100625.06
2022-12-13T21:29:36.723Z,100627.88
2022-12-13T21:32:06.305Z,100626.31
2022-12-13T21:34:35.151Z,100618.44
2022-12-13T21:37:06.864Z,100624.56
2022-12-13T21:39:38.660Z,100628.31
2022-12-13T21:42:10.455Z,100626.00
2022-12-13T21:44:39.453Z,100623.22
2022-12-13T21:47:12.703Z,100618.28
2022-12-13T21:49:48.830Z,100604.53
2022-12-13T21:52:20.998Z,100604.78
2022-12-13T21:54:52.773Z,100602.97
2022-12-13T21:57:43.331Z,100600.31
2022-12-13T22:00:17.056Z,100598.66
2022-12-13T22:02:46.062Z,100584.59
2022-12-13T22:05:14.838Z,100585.47
2022-12-13T22:07:43.702Z,100591.34
2022-12-13T22:10:17.139Z,100593.88
2022-12-13T22:12:47.217Z,100593.91
2022-12-13T22:15:17.212Z,100582.66
2022-12-13T22:17:45.924Z,100583.63
2022-12-13T22:20:15.821Z,100574.25
2022-12-13T22:22:50.789Z,100571.00
2022-12-13T22:25:20.101Z,100564.19
2022-12-13T22:28:00.184Z,100570.47
2022-12-13T22:30:29.166Z,100569.47
2022-12-13T22:33:04.286Z,100566.22
2022-12-13T22:35:36.538Z,100561.06
2022-12-13T22:38:05.583Z,100565.69
2022-12-13T22:40:34.169Z,100565.63
2022-12-13T22:43:05.032Z,100558.88
2022-12-13T22:45:33.802Z,100563.31
2022-12-13T22:48:02.521Z,100563.38
2022-12-13T22:50:31.141Z,100557.25
2022-12-13T22:52:59.790Z,100551.75
2022-12-13T22:55:29.078Z,100561.50
2022-12-13T22:57:58.405Z,100553.84
2022-12-13T23:00:29.654Z,100554.00
2022-12-13T23:02:58.700Z,100555.50
2022-12-13T23:05:27.599Z,100550.31
2022-12-13T23:07:56.412Z,100549.28
2022-12-13T23:10:54.139Z,100550.25
2022-12-13T23:13:22.814Z,100547.56
2022-12-13T23:15:52.891Z,100547.94
2022-12-13T23:18:21.601Z,100533.91
2022-12-13T23:20:52.682Z,100543.50
2022-12-13T23:23:21.621Z,100542.66
2022-12-13T23:25:50.659Z,100540.94
2022-12-13T23:28:19.451Z,100544.25
2022-12-13T23:30:48.672Z,100533.06
2022-12-13T23:33:18.917Z,100532.31
2022-12-13T23:35:47.694Z,100529.66
2022-12-13T23:38:16.633Z,100520.16
2022-12-13T23:40:45.489Z,100530.78
2022-12-13T23:43:14.495Z,100528.25
2022-12-13T23:45:43.159Z,100532.81
2022-12-13T23:48:11.965Z,100525.09
2022-12-13T23:50:42.111Z,100539.09
2022-12-13T23:53:10.638Z,100537.53
2022-12-13T23:55:39.095Z,100531.56
2022-12-13T23:58:11.074Z,100523.69
